To NAV CANADA Home Page Login to a new session Search on AWWS site Disclaimer Vers la page française équivalente Tips FAQ What's new on the site To the Forecasts and Observations / NOTAM section To "File a Flight Plan" website Publications and other links Update of the User's profile FIC Telephone Numbers My Weather Data Folder Route Weather Data Regional Weather Data Local Weather Data To the Forecasts and Observations / NOTAM section
Request Generated 11/13/2018 at 18:55:43 UTC . Weather information available at that time is displayed.

METAR/TAF

MONTREAL/PIERRE-ELLIOTT-TRUDEAU INTL/QC    

SPECI CYUL 131849Z 29005KT 260V330 6SM -DZ BR SCT004 OVC008 02/01 A2990 RMK SF3SF5 SLP128=
SPECI CYUL 131844Z 29004KT 260V330 6SM -DZ BR BKN006 OVC009 02/01 A2990 RMK SF6SF2 SLP129=
SPECI CYUL 131825Z 30004KT 6SM -DZ BR SCT006 OVC011 02/01 A2991 RMK SF3SC5 SLP130=
METAR CYUL 131800Z 29004KT 270V340 6SM -RA BR BKN007 OVC011 03/02 A2992 RMK SF6SC2 SLP135=
SPECI CYUL 131734Z 32004KT 7SM -RA BKN006 OVC010 02/01 A2993 RMK SF6SC2 SLP139=
SPECI CYUL 131721Z 32005KT 250V330 10SM -RA BKN006 OVC012 03/01 A2994 RMK SF6SC2 SLP140=
METAR CYUL 131700Z 31003KT 240V350 10SM BKN007 OVC012 03/02 A2995 RMK SF6SC2 PRESFR SLP144=
METAR CYUL 131600Z 20003KT 15SM OVC005 02/01 A2999 RMK SF8 SLP160=

TAF CYUL 131742Z 1318/1418 24007KT 5SM -RA BR OVC005 TEMPO 1318/1320
P6SM NSW SCT005 OVC012
FM132000 26010KT P6SM BKN015 TEMPO 1320/1323 P6SM -RASN BKN025
FM132300 27015KT P6SM SCT020 BKN050 TEMPO 1323/1402 BKN020
BECMG 1323/1401 28015G25KT
FM140200 28015G25KT P6SM SCT040
BECMG 1406/1408 29012G22KT
BECMG 1410/1412 29015G25KT
RMK NXT FCST BY 132100Z=
Your time UTC time
Weather data provided by Environment Canada and NAV CANADA